Time;durP1;ratioP1;P1;durP2;ratioP2;P2;SDS_P1;SDS_P2;PMS_P1;PMS_P2;Temp;Humidity;BMP_temperature;BMP_pressure;BME280_temperature;BME280_humidity;BME280_pressure;Samples;Min_cycle;Max_cycle;Signal;HPM_P1;HPM_P2
2024/01/11 00:00:29;;;;;;;5.43;3.80;;;;;;;-4.59;67.38;98040.22;6276685;22;20000;-65
2024/01/11 00:02:54;;;;;;;5.80;3.45;;;;;;;-4.50;66.69;98035.41;6275496;22;20389;-58
2024/01/11 00:05:21;;;;;;;6.20;3.50;;;;;;;-4.47;66.66;98022.19;6276763;22;20087;-59
2024/01/11 00:07:48;;;;;;;6.55;3.75;;;;;;;-4.54;67.10;98005.13;6276691;22;19999;-58
2024/01/11 00:10:13;;;;;;;6.55;3.22;;;;;;;-4.41;67.19;98001.91;6276111;22;20015;-58
2024/01/11 00:12:39;;;;;;;5.05;3.13;;;;;;;-4.68;66.83;97947.50;6276244;22;20293;-59
2024/01/11 00:15:05;;;;;;;6.00;3.65;;;;;;;-4.60;67.25;97961.00;6274978;22;20049;-59
2024/01/11 00:17:30;;;;;;;5.13;3.00;;;;;;;-4.31;67.22;97982.28;6277006;22;20084;-55
2024/01/11 00:19:56;;;;;;;6.18;3.45;;;;;;;-4.36;66.72;97952.88;6276249;22;20003;-57
2024/01/11 00:22:21;;;;;;;7.05;3.25;;;;;;;-4.33;67.18;97947.53;6276136;22;19996;-56
2024/01/11 00:24:47;;;;;;;5.82;3.40;;;;;;;-4.24;67.38;97947.06;6276592;22;20000;-60
2024/01/11 00:27:12;;;;;;;4.82;3.40;;;;;;;-4.21;67.07;97936.44;6276597;22;20049;-60
2024/01/11 00:29:38;;;;;;;6.68;3.78;;;;;;;-4.17;67.73;97931.94;6275946;22;20049;-58
2024/01/11 00:32:03;;;;;;;5.88;3.40;;;;;;;-4.15;67.63;97924.00;6275568;22;20003;-60
2024/01/11 00:34:29;;;;;;;5.43;3.17;;;;;;;-4.06;67.45;97929.59;6275767;22;20007;-57
2024/01/11 00:36:54;;;;;;;5.05;3.42;;;;;;;-4.03;67.93;97918.97;6276650;22;20058;-61
2024/01/11 00:39:20;;;;;;;7.03;2.83;;;;;;;-3.97;67.65;97909.16;6276044;22;20293;-60
2024/01/11 00:41:45;;;;;;;6.57;2.78;;;;;;;-3.96;67.78;97882.91;6276223;22;20300;-55
2024/01/11 00:44:11;;;;;;;5.50;3.38;;;;;;;-3.83;67.34;97895.34;6276381;22;20090;-58
2024/01/11 00:46:38;;;;;;;5.95;3.20;;;;;;;-3.79;67.82;97891.63;6276745;22;20043;-56
2024/01/11 00:49:04;;;;;;;5.30;3.10;;;;;;;-3.84;67.97;97857.88;6276184;22;20132;-57
2024/01/11 00:51:29;;;;;;;5.22;3.20;;;;;;;-3.71;67.86;97865.91;6276336;22;20075;-57
2024/01/11 00:53:55;;;;;;;3.95;2.65;;;;;;;-3.67;68.22;97853.53;6276162;22;20307;-61
2024/01/11 00:56:21;;;;;;;6.82;3.35;;;;;;;-3.61;67.92;97843.56;6275211;22;19996;-58
2024/01/11 00:58:46;;;;;;;5.40;3.03;;;;;;;-3.52;67.96;97836.97;6277789;22;19995;-59
2024/01/11 01:01:12;;;;;;;4.68;2.80;;;;;;;-3.45;68.19;97824.41;6277920;22;20250;-57
2024/01/11 01:03:39;;;;;;;4.43;2.72;;;;;;;-3.47;68.53;97818.41;6277977;22;20049;-58
2024/01/11 01:06:05;;;;;;;5.25;2.45;;;;;;;-3.44;68.17;97818.22;6277914;22;20087;-60
2024/01/11 01:08:30;;;;;;;4.90;2.47;;;;;;;-3.41;68.80;97812.00;6278277;22;20102;-59
2024/01/11 01:10:56;;;;;;;4.35;2.42;;;;;;;-3.39;69.11;97802.28;6277895;22;20356;-58
2024/01/11 01:13:21;;;;;;;4.22;3.03;;;;;;;-3.38;69.33;97788.28;6278338;22;20011;-56
2024/01/11 01:15:47;;;;;;;5.82;2.92;;;;;;;-3.28;69.06;97793.81;6277829;22;20011;-57
2024/01/11 01:18:12;;;;;;;3.72;2.42;;;;;;;-3.45;68.63;97748.53;6277726;22;20030;-54
2024/01/11 01:20:38;;;;;;;4.18;2.33;;;;;;;-3.15;68.46;97779.09;6278168;22;20003;-60
2024/01/11 01:23:04;;;;;;;3.85;2.60;;;;;;;-3.09;67.99;97756.97;6276574;22;20381;-63
2024/01/11 01:25:29;;;;;;;4.78;2.70;;;;;;;-3.08;67.80;97751.66;6278121;22;20004;-57
2024/01/11 01:27:56;;;;;;;6.28;2.70;;;;;;;-3.14;67.95;97738.91;6278393;22;20064;-57
2024/01/11 01:30:22;;;;;;;4.90;2.72;;;;;;;-3.06;68.24;97741.94;6277783;22;20086;-56
2024/01/11 01:32:47;;;;;;;4.82;2.58;;;;;;;-3.04;68.18;97733.97;6277696;22;20404;-57
2024/01/11 01:35:13;;;;;;;3.33;2.08;;;;;;;-2.99;68.56;97731.09;6278026;22;20149;-58
2024/01/11 01:37:38;;;;;;;5.45;2.38;;;;;;;-3.01;69.00;97704.16;6277814;22;20010;-55
2024/01/11 01:40:05;;;;;;;5.10;2.53;;;;;;;-2.86;68.78;97700.63;6277615;22;20008;-59
2024/01/11 01:42:30;;;;;;;4.22;2.40;;;;;;;-2.81;68.64;97709.03;6278578;22;20067;-55
2024/01/11 01:44:56;;;;;;;4.80;2.45;;;;;;;-2.76;69.03;97693.06;6277963;22;20193;-57
2024/01/11 01:47:21;;;;;;;5.18;2.30;;;;;;;-2.71;69.20;97683.16;6277537;22;20397;-55
2024/01/11 01:49:49;;;;;;;5.28;2.30;;;;;;;-2.54;68.88;97686.50;6277485;22;20078;-58
2024/01/11 01:52:16;;;;;;;4.13;1.98;;;;;;;-2.54;68.99;97661.16;6278262;22;20008;-62
2024/01/11 01:54:42;;;;;;;4.53;2.13;;;;;;;-2.46;69.74;97665.91;6277741;22;20015;-58
2024/01/11 01:57:10;;;;;;;3.70;2.20;;;;;;;-2.37;69.50;97657.47;6277442;22;20015;-60
2024/01/11 01:59:37;;;;;;;4.35;2.10;;;;;;;-2.39;69.63;97653.28;6278115;22;20011;-65
2024/01/11 02:02:04;;;;;;;4.28;2.30;;;;;;;-2.36;69.73;97639.97;6277401;22;20007;-60
2024/01/11 02:04:30;;;;;;;3.00;2.00;;;;;;;-2.29;69.71;97627.31;6277638;22;20466;-60
2024/01/11 02:06:57;;;;;;;3.70;2.45;;;;;;;-2.24;69.48;97622.63;6277450;22;20007;-62
2024/01/11 02:09:22;;;;;;;4.90;1.98;;;;;;;-2.19;69.75;97617.94;6277883;22;20016;-59
2024/01/11 02:11:48;;;;;;;3.35;1.90;;;;;;;-2.12;69.70;97621.81;6277685;22;20011;-59
2024/01/11 02:14:13;;;;;;;5.07;2.10;;;;;;;-2.03;69.05;97610.75;6277384;22;20007;-58
2024/01/11 02:16:39;;;;;;;3.35;2.15;;;;;;;-1.99;69.47;97600.91;6277159;22;20011;-59
2024/01/11 02:19:06;;;;;;;2.85;1.80;;;;;;;-1.94;70.12;97616.34;6277949;22;20385;-60
2024/01/11 02:21:34;;;;;;;4.55;2.30;;;;;;;-1.94;70.00;97598.81;6278283;22;20004;-56
2024/01/11 02:24:03;;;;;;;2.67;1.83;;;;;;;-2.04;69.90;97561.03;6277455;22;20018;-59
2024/01/11 02:26:28;;;;;;;4.43;2.10;;;;;;;-1.88;69.74;97580.06;6276660;22;20401;-56
2024/01/11 02:28:54;;;;;;;5.35;1.85;;;;;;;-1.80;69.37;97570.84;6277602;22;20100;-56
2024/01/11 02:31:20;;;;;;;3.40;2.15;;;;;;;-1.77;69.54;97568.88;6277921;22;20004;-59
2024/01/11 02:33:45;;;;;;;3.88;2.10;;;;;;;-1.71;69.88;97562.34;6277549;22;20000;-61
2024/01/11 02:36:11;;;;;;;3.30;1.77;;;;;;;-1.68;69.65;97537.69;6277175;22;20018;-56
2024/01/11 02:38:37;;;;;;;3.30;1.92;;;;;;;-1.64;70.04;97536.53;6277760;22;20256;-55
2024/01/11 02:41:03;;;;;;;4.30;1.70;;;;;;;-1.65;70.22;97527.84;6277739;22;20008;-60
2024/01/11 02:43:28;;;;;;;3.40;1.60;;;;;;;-1.84;70.76;97474.94;6277416;22;20026;-59
2024/01/11 02:45:55;;;;;;;4.45;2.00;;;;;;;-1.47;70.41;97519.66;6275495;22;20012;-56
2024/01/11 02:48:21;;;;;;;3.53;1.83;;;;;;;-1.43;70.56;97508.03;6277111;22;20071;-58
2024/01/11 02:50:48;;;;;;;3.42;2.08;;;;;;;-1.37;71.10;97509.34;6277772;22;20083;-57
2024/01/11 02:53:14;;;;;;;2.22;1.40;;;;;;;-1.39;70.82;97493.72;6276910;22;20003;-56
2024/01/11 02:55:40;;;;;;;2.30;1.60;;;;;;;-1.24;70.69;97490.97;6276974;22;20049;-62
2024/01/11 02:58:05;;;;;;;3.65;1.30;;;;;;;-1.18;70.82;97494.00;6275898;22;20003;-55
2024/01/11 03:00:31;;;;;;;2.53;1.42;;;;;;;-1.17;71.03;97477.31;6276703;22;20015;-58
2024/01/11 03:02:56;;;;;;;2.90;1.48;;;;;;;-1.05;71.58;97480.03;6276582;22;20003;-59
2024/01/11 03:05:21;;;;;;;2.83;1.30;;;;;;;-0.98;71.04;97480.41;6276957;22;20002;-59
2024/01/11 03:07:47;;;;;;;1.83;0.82;;;;;;;-0.93;71.57;97473.88;6276985;22;20419;-60
2024/01/11 03:10:12;;;;;;;2.50;1.10;;;;;;;-0.87;71.90;97462.94;6277246;22;20000;-59
2024/01/11 03:12:39;;;;;;;1.73;0.90;;;;;;;-0.81;71.98;97466.91;6277117;22;20023;-60
2024/01/11 03:15:05;;;;;;;1.90;1.00;;;;;;;-0.77;71.86;97463.09;6276944;22;20424;-59
2024/01/11 03:17:33;;;;;;;1.27;0.88;;;;;;;-0.73;72.36;97463.72;6276844;22;20130;-58
2024/01/11 03:19:59;;;;;;;1.38;0.70;;;;;;;-0.67;72.24;97452.78;6276860;22;20082;-57
2024/01/11 03:22:25;;;;;;;1.10;0.80;;;;;;;-0.56;71.93;97452.00;6276887;22;20027;-57
2024/01/11 03:24:50;;;;;;;1.38;0.90;;;;;;;-0.70;71.87;97433.78;6276837;22;20061;-60
2024/01/11 03:27:16;;;;;;;1.48;0.85;;;;;;;-0.52;72.31;97448.19;6276278;22;20008;-55
2024/01/11 03:29:41;;;;;;;2.47;1.02;;;;;;;-0.47;72.37;97432.94;6277015;22;20006;-58
2024/01/11 03:32:07;;;;;;;1.65;0.70;;;;;;;-0.48;72.43;97425.13;6275922;22;20062;-55
2024/01/11 03:34:32;;;;;;;2.47;0.75;;;;;;;-0.42;72.75;97424.69;6275213;22;20007;-59
2024/01/11 03:36:58;;;;;;;1.73;0.70;;;;;;;-0.38;72.37;97420.88;6276372;22;20405;-61
2024/01/11 03:39:25;;;;;;;0.82;0.68;;;;;;;-0.39;73.01;97405.22;6277062;22;20003;-59
2024/01/11 03:41:50;;;;;;;1.42;0.77;;;;;;;-0.33;72.83;97412.66;6276702;22;20301;-59
2024/01/11 03:44:16;;;;;;;0.70;0.57;;;;;;;-0.25;73.05;97405.00;6276443;22;20022;-62
2024/01/11 03:46:41;;;;;;;1.77;0.88;;;;;;;-0.22;72.90;97406.56;6276727;22;20303;-60
2024/01/11 03:49:07;;;;;;;1.35;0.57;;;;;;;-0.17;72.91;97399.16;6277387;22;20087;-63
2024/01/11 03:51:34;;;;;;;1.00;0.70;;;;;;;-0.13;72.82;97410.31;6276496;22;20380;-57
2024/01/11 03:54:00;;;;;;;2.50;0.70;;;;;;;-0.11;72.67;97395.25;6275949;22;20312;-59
2024/01/11 03:56:25;;;;;;;1.30;0.80;;;;;;;-0.09;72.31;97388.06;6277148;22;20083;-58
2024/01/11 03:58:51;;;;;;;1.48;0.80;;;;;;;-0.07;72.54;97389.66;6276896;22;20061;-60
2024/01/11 04:01:16;;;;;;;0.98;0.70;;;;;;;-0.03;72.82;97390.22;6276255;22;20011;-58
2024/01/11 04:03:42;;;;;;;1.08;0.60;;;;;;;-0.01;72.70;97375.16;6276688;22;19996;-62
2024/01/11 04:06:07;;;;;;;1.42;0.70;;;;;;;-0.01;72.72;97386.53;6276875;22;20004;-57
2024/01/11 04:08:33;;;;;;;1.30;0.55;;;;;;;0.06;72.27;97375.53;6275683;22;20012;-57
2024/01/11 04:11:02;;;;;;;0.98;0.77;;;;;;;0.07;72.93;97382.47;6276297;22;20288;-58
2024/01/11 04:13:28;;;;;;;1.13;0.63;;;;;;;0.02;72.89;97374.97;6276375;22;19996;-56
2024/01/11 04:15:53;;;;;;;2.95;0.90;;;;;;;0.11;72.99;97374.22;6276335;22;20073;-53
2024/01/11 04:18:19;;;;;;;1.38;0.80;;;;;;;0.06;72.49;97368.50;6276906;22;20003;-55
2024/01/11 04:20:44;;;;;;;4.25;0.98;;;;;;;0.08;72.88;97374.47;6276072;22;19999;-59
2024/01/11 04:23:10;;;;;;;1.85;0.93;;;;;;;0.10;73.00;97374.34;6276422;22;20397;-55
2024/01/11 04:25:35;;;;;;;2.15;0.85;;;;;;;0.09;72.77;97365.63;6276880;22;20318;-59
2024/01/11 04:28:01;;;;;;;4.47;0.90;;;;;;;0.14;72.69;97362.66;6276718;22;20046;-59
2024/01/11 04:30:26;;;;;;;2.38;1.00;;;;;;;0.25;72.35;97356.53;6275972;22;19996;-60
2024/01/11 04:32:51;;;;;;;1.92;0.90;;;;;;;0.23;72.30;97367.19;6276022;22;20004;-60
2024/01/11 04:35:17;;;;;;;1.88;0.95;;;;;;;0.22;72.66;97364.66;6276490;22;20316;-62
2024/01/11 04:37:42;;;;;;;3.40;1.13;;;;;;;0.23;72.69;97355.81;6276875;22;20011;-60
2024/01/11 04:40:08;;;;;;;2.28;1.10;;;;;;;0.22;73.06;97352.34;6275596;22;20038;-59
2024/01/11 04:42:34;;;;;;;1.40;0.90;;;;;;;0.26;72.87;97360.84;6276047;22;20078;-63
2024/01/11 04:45:00;;;;;;;3.30;1.15;;;;;;;0.31;72.99;97350.78;6276312;22;20016;-61
2024/01/11 04:47:25;;;;;;;2.90;1.05;;;;;;;0.30;73.13;97335.97;6274985;22;20004;-61
2024/01/11 04:49:51;;;;;;;2.30;1.35;;;;;;;0.29;72.61;97339.56;6275844;22;20010;-57
2024/01/11 04:52:16;;;;;;;3.25;1.15;;;;;;;0.36;72.84;97338.09;6275736;22;20007;-62
2024/01/11 04:54:42;;;;;;;2.67;1.10;;;;;;;0.40;72.95;97342.16;6276225;22;20008;-60
2024/01/11 04:57:07;;;;;;;1.75;1.08;;;;;;;0.43;72.85;97328.75;6274532;22;19995;-61
2024/01/11 04:59:33;;;;;;;2.72;1.20;;;;;;;0.46;72.70;97322.41;6276218;22;20397;-61
2024/01/11 05:01:58;;;;;;;3.08;1.38;;;;;;;0.48;72.73;97325.75;6275527;22;20015;-62
2024/01/11 05:04:24;;;;;;;1.98;1.20;;;;;;;0.45;72.69;97312.00;6275813;22;20000;-57
2024/01/11 05:06:51;;;;;;;1.95;1.45;;;;;;;0.47;73.07;97320.59;6275595;22;20004;-60
2024/01/11 05:09:17;;;;;;;2.10;1.27;;;;;;;0.52;73.21;97310.56;6275895;22;20147;-61
2024/01/11 05:11:42;;;;;;;4.47;1.27;;;;;;;0.53;73.19;97307.78;6276086;22;20010;-58
2024/01/11 05:14:08;;;;;;;4.85;2.03;;;;;;;0.51;72.99;97306.25;6275280;22;19996;-60
2024/01/11 05:16:35;;;;;;;7.60;1.80;;;;;;;0.57;73.13;97300.50;6275607;22;20330;-60
2024/01/11 05:19:00;;;;;;;6.07;1.63;;;;;;;0.55;73.62;97305.06;6276089;22;20008;-61
2024/01/11 05:21:26;;;;;;;4.43;1.40;;;;;;;0.53;73.51;97294.63;6275815;22;20338;-62
2024/01/11 05:23:52;;;;;;;4.20;1.38;;;;;;;0.56;73.76;97298.81;6274600;22;20325;-63
2024/01/11 05:26:18;;;;;;;3.78;1.63;;;;;;;0.65;73.41;97287.53;6276411;22;20015;-63
2024/01/11 05:28:44;;;;;;;2.67;1.50;;;;;;;0.67;73.35;97293.53;6276026;22;20007;-60
2024/01/11 05:31:11;;;;;;;4.22;1.42;;;;;;;0.80;73.01;97295.16;6274267;22;20053;-62
2024/01/11 05:33:40;;;;;;;7.57;1.30;;;;;;;0.72;73.42;97282.63;6276223;22;20027;-58
2024/01/11 05:36:06;;;;;;;4.10;1.95;;;;;;;0.70;73.71;97292.44;6276255;22;20035;-62
2024/01/11 05:38:32;;;;;;;3.70;1.33;;;;;;;0.69;74.13;97280.25;6275865;22;19999;-60
2024/01/11 05:40:58;;;;;;;2.80;1.30;;;;;;;0.73;73.75;97283.47;6276213;22;20015;-57
2024/01/11 05:43:23;;;;;;;2.72;1.13;;;;;;;0.53;74.04;97233.25;6276809;22;20289;-59
2024/01/11 05:45:50;;;;;;;3.20;1.42;;;;;;;0.70;74.00;97261.66;6277888;22;19999;-60
2024/01/11 05:48:16;;;;;;;4.50;1.42;;;;;;;0.83;73.89;97258.03;6277667;22;20313;-56
2024/01/11 05:50:42;;;;;;;5.93;1.40;;;;;;;0.82;73.95;97262.47;6278217;22;20039;-61
2024/01/11 05:53:08;;;;;;;4.75;1.30;;;;;;;0.82;74.14;97248.47;6278260;22;20401;-61
2024/01/11 05:55:34;;;;;;;4.18;1.33;;;;;;;0.91;73.63;97260.88;6277605;22;20010;-54
2024/01/11 05:58:00;;;;;;;5.68;1.30;;;;;;;0.95;73.79;97262.28;6277472;22;20008;-61
2024/01/11 06:00:25;;;;;;;2.58;1.17;;;;;;;0.92;73.96;97236.19;6277919;22;20089;-62
2024/01/11 06:02:51;;;;;;;2.75;1.27;;;;;;;0.99;73.85;97247.91;6278130;22;20007;-61
2024/01/11 06:05:16;;;;;;;3.88;1.30;;;;;;;0.99;74.08;97242.66;6277686;22;20010;-62
2024/01/11 06:07:42;;;;;;;3.50;1.30;;;;;;;1.07;74.37;97256.97;6277214;22;20384;-60
2024/01/11 06:10:08;;;;;;;3.38;1.40;;;;;;;1.04;74.40;97230.88;6277863;22;20003;-63
2024/01/11 06:12:34;;;;;;;4.93;1.70;;;;;;;1.10;74.62;97239.13;6277988;22;20010;-60
2024/01/11 06:15:00;;;;;;;14.35;1.55;;;;;;;1.12;74.91;97229.28;6277290;22;20008;-59
2024/01/11 06:17:26;;;;;;;3.67;1.30;;;;;;;1.12;74.61;97226.66;6277055;22;20074;-60
2024/01/11 06:19:52;;;;;;;2.63;1.38;;;;;;;1.20;74.43;97227.78;6277726;22;20486;-63
2024/01/11 06:22:18;;;;;;;6.25;2.13;;;;;;;1.21;74.51;97226.84;6277012;22;20008;-60
2024/01/11 06:24:43;;;;;;;4.75;1.15;;;;;;;1.28;74.02;97231.47;6277566;22;20065;-59
2024/01/11 06:27:09;;;;;;;3.03;1.40;;;;;;;1.28;74.51;97230.63;6277140;22;20007;-60
2024/01/11 06:29:35;;;;;;;2.55;1.20;;;;;;;1.21;74.45;97217.13;6277600;22;20249;-59
2024/01/11 06:32:00;;;;;;;5.40;1.40;;;;;;;1.27;74.63;97210.50;6277330;22;20004;-59
2024/01/11 06:34:26;;;;;;;4.03;1.55;;;;;;;1.36;74.60;97222.91;6277378;22;20010;-59
2024/01/11 06:36:52;;;;;;;5.65;1.00;;;;;;;1.33;74.23;97204.72;6276904;22;20274;-62
2024/01/11 06:39:17;;;;;;;7.88;1.50;;;;;;;1.42;74.18;97211.84;6277368;22;20008;-61
2024/01/11 06:41:43;;;;;;;4.60;1.63;;;;;;;1.49;74.16;97219.22;6277742;22;20011;-59
2024/01/11 06:44:08;;;;;;;4.95;1.60;;;;;;;1.47;74.06;97215.88;6275727;22;20469;-62
2024/01/11 06:46:35;;;;;;;6.88;2.53;;;;;;;1.51;74.04;97219.91;6277244;22;20297;-61
2024/01/11 06:49:01;;;;;;;5.53;1.40;;;;;;;1.52;74.07;97206.63;6276692;22;19999;-61
2024/01/11 06:51:27;;;;;;;3.85;1.30;;;;;;;1.62;73.82;97211.09;6276609;22;20011;-56
2024/01/11 06:53:53;;;;;;;3.08;1.27;;;;;;;1.66;73.93;97217.75;6276816;22;20000;-60
2024/01/11 06:56:22;;;;;;;6.28;1.50;;;;;;;1.70;73.30;97200.72;6277021;22;20204;-62
2024/01/11 06:58:48;;;;;;;7.55;1.40;;;;;;;1.84;73.41;97204.81;6276955;22;20424;-62
2024/01/11 07:01:13;;;;;;;6.57;1.50;;;;;;;1.94;73.51;97202.19;6277034;22;20003;-62
2024/01/11 07:03:39;;;;;;;5.10;1.65;;;;;;;2.00;73.19;97199.03;6276501;22;20076;-60
2024/01/11 07:06:05;;;;;;;3.05;1.20;;;;;;;2.04;72.72;97195.13;6277073;22;20000;-61
2024/01/11 07:08:32;;;;;;;6.28;1.50;;;;;;;1.99;72.95;97203.44;6276960;22;20010;-61
2024/01/11 07:10:59;;;;;;;5.30;1.15;;;;;;;1.98;72.66;97193.03;6276719;22;20042;-62
2024/01/11 07:13:25;;;;;;;4.28;1.33;;;;;;;2.01;73.40;97195.41;6277323;22;20011;-60
2024/01/11 07:15:51;;;;;;;6.57;1.52;;;;;;;1.99;72.37;97186.78;6277163;22;20007;-61
2024/01/11 07:18:17;;;;;;;5.63;1.38;;;;;;;2.05;72.42;97196.81;6276617;22;20000;-59
2024/01/11 07:20:43;;;;;;;5.15;1.50;;;;;;;1.80;72.58;97138.28;6277155;22;20003;-59
2024/01/11 07:23:09;;;;;;;6.30;1.40;;;;;;;2.09;72.63;97192.91;6277002;22;20004;-61
2024/01/11 07:25:34;;;;;;;4.95;1.40;;;;;;;2.01;72.70;97169.00;6275356;22;20401;-63
2024/01/11 07:28:00;;;;;;;5.28;1.40;;;;;;;2.02;72.37;97170.69;6277083;22;20008;-59
2024/01/11 07:30:26;;;;;;;6.07;1.30;;;;;;;2.01;72.59;97176.94;6277112;22;20405;-60
2024/01/11 07:32:51;;;;;;;5.97;1.67;;;;;;;1.97;72.93;97175.53;6276713;22;20012;-59
2024/01/11 07:35:17;;;;;;;4.32;1.13;;;;;;;2.01;72.28;97169.84;6276537;22;20058;-62
2024/01/11 07:37:43;;;;;;;6.20;1.35;;;;;;;1.96;72.03;97174.69;6277083;22;20031;-62
2024/01/11 07:40:10;;;;;;;6.60;1.40;;;;;;;1.93;73.03;97156.50;6277160;22;20011;-62
2024/01/11 07:42:40;;;;;;;11.77;1.45;;;;;;;2.02;72.28;97149.56;6276772;22;20368;-62
2024/01/11 07:45:12;;;;;;;4.00;1.40;;;;;;;2.24;71.90;97158.22;6276543;22;20011;-61
2024/01/11 07:47:38;;;;;;;4.45;1.30;;;;;;;2.17;71.83;97115.69;6276075;22;20067;-60
2024/01/11 07:50:09;;;;;;;7.30;1.35;;;;;;;2.68;71.01;97150.72;6277246;22;20015;-62
2024/01/11 07:52:36;;;;;;;6.05;1.17;;;;;;;2.82;70.97;97144.19;6276587;22;20008;-61
2024/01/11 07:55:07;;;;;;;3.83;1.30;;;;;;;2.92;69.80;97141.53;6275789;22;20008;-61
2024/01/11 07:57:36;;;;;;;5.28;1.33;;;;;;;2.95;69.70;97141.25;6277446;22;20003;-61
2024/01/11 08:00:03;;;;;;;3.83;1.40;;;;;;;2.98;69.28;97143.59;6277319;22;20003;-63
2024/01/11 08:02:30;;;;;;;6.15;1.50;;;;;;;2.97;69.40;97141.94;6276073;22;20477;-63
2024/01/11 08:04:55;;;;;;;6.50;1.45;;;;;;;2.95;69.14;97140.38;6277119;22;20079;-62
2024/01/11 08:07:21;;;;;;;8.60;1.58;;;;;;;2.98;69.18;97133.03;6277092;22;20004;-62
2024/01/11 08:09:47;;;;;;;7.75;1.30;;;;;;;2.82;69.41;97124.84;6277189;22;20031;-63
2024/01/11 08:12:14;;;;;;;6.45;1.70;;;;;;;2.66;69.24;97120.97;6276512;22;20026;-62
2024/01/11 08:14:41;;;;;;;6.93;1.40;;;;;;;2.55;70.54;97124.59;6276487;22;20003;-62
2024/01/11 08:17:08;;;;;;;7.40;1.33;;;;;;;2.31;70.12;97074.84;6277152;22;20003;-62
2024/01/11 08:19:34;;;;;;;10.13;1.10;;;;;;;2.56;69.99;97125.41;6277175;22;19999;-62
2024/01/11 08:21:59;;;;;;;10.30;1.60;;;;;;;2.26;70.00;97093.72;6275089;22;20086;-61
2024/01/11 08:24:25;;;;;;;5.43;1.35;;;;;;;2.41;69.59;97120.56;6276772;22;20355;-62
2024/01/11 08:26:51;;;;;;;7.72;1.50;;;;;;;1.97;70.36;97069.97;6275836;22;20014;-62
2024/01/11 08:29:19;;;;;;;6.20;1.27;;;;;;;2.30;70.40;97099.56;6276924;22;20023;-63
2024/01/11 08:31:48;;;;;;;10.30;1.30;;;;;;;2.22;70.96;97113.47;6276451;22;20086;-63
2024/01/11 08:34:13;;;;;;;2.22;1.17;;;;;;;2.18;71.48;97108.63;6276460;22;20026;-62
2024/01/11 08:36:39;;;;;;;6.55;1.50;;;;;;;2.26;70.80;97101.66;6275895;22;20320;-62
2024/01/11 08:39:05;;;;;;;6.30;1.50;;;;;;;2.24;71.24;97094.84;6249422;22;19999;-61
2024/01/11 08:41:32;;;;;;;4.60;1.05;;;;;;;2.18;71.42;97100.69;6276550;22;20061;-62
2024/01/11 08:43:58;;;;;;;3.88;1.30;;;;;;;2.14;71.46;97108.06;6276566;22;20045;-62
2024/01/11 08:46:27;;;;;;;3.72;1.17;;;;;;;2.07;72.19;97099.84;6276297;22;20121;-62
2024/01/11 08:48:54;;;;;;;5.72;1.45;;;;;;;2.09;72.20;97105.81;6276426;22;19995;-59
2024/01/11 08:51:19;;;;;;;6.30;1.40;;;;;;;2.08;72.33;97096.22;6276496;22;20073;-63
2024/01/11 08:53:45;;;;;;;3.42;1.38;;;;;;;2.06;71.32;97087.63;6276597;22;19999;-63
2024/01/11 08:56:10;;;;;;;6.95;2.15;;;;;;;2.00;71.07;97191.09;6276539;22;20008;-62
2024/01/11 08:58:36;;;;;;;2.15;0.93;;;;;;;1.57;71.00;97183.31;6276116;22;20004;-61
2024/01/11 09:01:02;;;;;;;1.33;0.90;;;;;;;1.26;72.95;97185.09;6276242;22;20328;-62
2024/01/11 09:03:28;;;;;;;5.57;1.92;;;;;;;0.89;71.48;97178.50;6276516;22;20334;-60
2024/01/11 09:05:56;;;;;;;3.95;1.20;;;;;;;0.75;71.87;97213.06;6275560;22;20038;-64
2024/01/11 09:08:22;;;;;;;2.00;1.08;;;;;;;0.61;71.44;97188.69;6276364;22;20015;-62
2024/01/11 09:10:49;;;;;;;6.65;1.52;;;;;;;0.51;71.15;97190.44;6276390;22;20000;-64
2024/01/11 09:13:15;;;;;;;3.58;1.10;;;;;;;0.37;71.20;97192.38;6276072;22;20007;-62
2024/01/11 09:15:41;;;;;;;3.45;1.20;;;;;;;-0.03;72.03;97161.38;6276292;22;20393;-62
2024/01/11 09:18:07;;;;;;;2.22;1.08;;;;;;;0.17;72.06;97196.63;6275908;22;20384;-64
2024/01/11 09:20:34;;;;;;;4.97;1.45;;;;;;;0.24;71.88;97203.06;6277624;22;20014;-67
2024/01/11 09:23:02;;;;;;;3.85;1.55;;;;;;;0.26;71.84;97210.84;6277294;22;20082;-65
2024/01/11 09:25:27;;;;;;;3.17;1.23;;;;;;;0.27;71.38;97202.00;6278798;22;20022;-63
2024/01/11 09:27:53;;;;;;;3.25;0.98;;;;;;;0.35;71.48;97228.50;6277953;22;20000;-64
2024/01/11 09:30:18;;;;;;;1.20;0.80;;;;;;;0.39;71.37;97240.47;6278162;22;20337;-63
2024/01/11 09:32:44;;;;;;;2.58;2.03;;;;;;;0.33;70.55;97234.84;6277145;22;20007;-63
2024/01/11 09:35:10;;;;;;;3.15;1.70;;;;;;;0.27;70.44;97225.66;6277833;22;20035;-61
2024/01/11 09:37:36;;;;;;;1.88;1.00;;;;;;;0.11;69.47;97231.31;6277948;22;20058;-62
2024/01/11 09:40:02;;;;;;;1.58;0.90;;;;;;;0.11;67.73;97241.81;6278081;22;20082;-63
2024/01/11 09:42:29;;;;;;;1.23;1.00;;;;;;;0.11;68.18;97245.31;6278526;22;20099;-61
2024/01/11 09:44:56;;;;;;;3.65;1.50;;;;;;;0.16;67.43;97250.22;6278026;22;20080;-64
2024/01/11 09:47:23;;;;;;;4.00;1.60;;;;;;;0.20;66.94;97264.78;6277863;22;20262;-60
2024/01/11 09:49:53;;;;;;;3.88;1.10;;;;;;;0.11;65.35;97260.25;6277781;22;20015;-64
2024/01/11 09:52:21;;;;;;;3.75;1.58;;;;;;;0.11;66.53;97270.75;6277969;22;20467;-63
2024/01/11 09:54:47;;;;;;;4.07;1.83;;;;;;;0.10;67.57;97254.16;6277968;22;20039;-60
2024/01/11 09:57:20;;;;;;;4.45;2.10;;;;;;;0.21;65.22;97276.13;6276540;22;20396;-59
2024/01/11 09:59:46;;;;;;;6.40;1.75;;;;;;;0.26;64.97;97260.84;6277717;22;20010;-63
2024/01/11 10:02:12;;;;;;;4.18;1.63;;;;;;;0.22;64.04;97281.28;6277015;22;20007;-62
2024/01/11 10:04:37;;;;;;;2.80;1.10;;;;;;;0.18;63.28;97289.53;6278067;22;20085;-62
2024/01/11 10:07:05;;;;;;;1.42;1.10;;;;;;;0.06;62.52;97286.94;6276465;22;20050;-61
2024/01/11 10:09:31;;;;;;;2.53;1.40;;;;;;;-0.11;63.05;97279.53;6278131;22;20028;-64
2024/01/11 10:11:57;;;;;;;5.55;1.73;;;;;;;-0.02;62.28;97299.84;6277842;22;20343;-61
2024/01/11 10:14:22;;;;;;;7.30;1.60;;;;;;;0.00;63.29;97308.47;6277266;22;20030;-61
2024/01/11 10:16:48;;;;;;;5.22;1.55;;;;;;;-0.02;61.81;97321.72;6276100;22;20073;-60
2024/01/11 10:19:16;;;;;;;2.95;1.67;;;;;;;0.02;62.16;97337.28;6277522;22;20003;-60
2024/01/11 10:21:42;;;;;;;2.65;1.40;;;;;;;-0.06;60.87;97340.50;6277936;22;20343;-62
2024/01/11 10:24:07;;;;;;;3.88;1.63;;;;;;;-0.21;62.09;97327.59;6277864;22;20092;-62
2024/01/11 10:26:33;;;;;;;2.72;1.48;;;;;;;-0.23;62.09;97329.50;6277823;22;20012;-62
2024/01/11 10:28:59;;;;;;;2.63;1.65;;;;;;;-0.19;61.27;97351.13;6277343;22;20083;-61
2024/01/11 10:31:28;;;;;;;2.60;1.65;;;;;;;-0.27;60.96;97353.50;6277672;22;20003;-60
2024/01/11 10:33:54;;;;;;;2.58;1.25;;;;;;;-0.38;60.84;97368.28;6277242;22;20003;-59
2024/01/11 10:36:19;;;;;;;1.63;1.33;;;;;;;-0.50;60.37;97366.59;6277048;22;20049;-63
2024/01/11 10:38:47;;;;;;;2.05;1.27;;;;;;;-0.56;60.85;97373.13;6276702;22;19996;-62
2024/01/11 10:41:17;;;;;;;1.20;1.00;;;;;;;-1.13;59.42;97325.63;6277218;22;20392;-58
2024/01/11 10:43:45;;;;;;;1.92;1.15;;;;;;;-0.85;59.82;97385.78;6277046;22;20292;-61
2024/01/11 10:46:13;;;;;;;2.10;1.40;;;;;;;-0.98;59.19;97394.59;6277056;22;20057;-61
2024/01/11 10:48:42;;;;;;;1.77;1.20;;;;;;;-1.01;60.24;97402.69;6275741;22;20004;-64
2024/01/11 10:51:12;;;;;;;2.17;1.20;;;;;;;-1.15;60.02;97419.44;6277129;22;20453;-63
2024/01/11 10:53:45;;;;;;;2.67;1.00;;;;;;;-1.25;59.02;97434.16;6276918;22;20060;-62
2024/01/11 10:56:12;;;;;;;4.72;0.98;;;;;;;-1.39;59.12;97446.47;6277118;22;20011;-60
2024/01/11 10:58:41;;;;;;;1.67;1.05;;;;;;;-1.85;57.98;97389.34;6277084;22;20004;-61
2024/01/11 11:01:08;;;;;;;1.60;1.10;;;;;;;-1.68;58.62;97464.25;6275524;22;20344;-59
2024/01/11 11:03:35;;;;;;;3.03;1.10;;;;;;;-2.17;58.06;97414.19;6277640;22;20084;-62
2024/01/11 11:06:01;;;;;;;3.08;1.35;;;;;;;-1.99;57.89;97469.78;6277027;22;20038;-61
2024/01/11 11:08:27;;;;;;;2.53;1.60;;;;;;;-2.17;57.55;97488.44;6276759;22;20376;-60
2024/01/11 11:10:57;;;;;;;1.98;1.52;;;;;;;-2.19;57.40;97484.22;6277106;22;20004;-61
2024/01/11 11:13:24;;;;;;;4.22;1.60;;;;;;;-2.36;57.36;97512.38;6277161;22;20000;-60
2024/01/11 11:15:50;;;;;;;1.90;0.80;;;;;;;-2.56;55.36;97508.44;6276662;22;20003;-61
2024/01/11 11:18:16;;;;;;;2.30;0.70;;;;;;;-2.95;53.23;97510.88;6276756;22;20008;-60
2024/01/11 11:20:43;;;;;;;1.42;0.73;;;;;;;-3.41;54.97;97491.00;6276251;22;20000;-62
2024/01/11 11:23:10;;;;;;;1.65;1.20;;;;;;;-3.54;54.76;97511.84;6276522;22;20007;-65
2024/01/11 11:25:36;;;;;;;1.13;0.70;;;;;;;-3.76;55.66;97531.41;6277064;22;20003;-63
2024/01/11 11:28:06;;;;;;;4.22;1.10;;;;;;;-4.07;55.76;97517.53;6275780;22;20496;-62
2024/01/11 11:30:32;;;;;;;3.17;0.80;;;;;;;-4.08;55.34;97546.41;6277195;22;20300;-63